Time;durP1;ratioP1;P1;durP2;ratioP2;P2;SDS_P1;SDS_P2;PMS_P1;PMS_P2;Temp;Humidity;BMP_temperature;BMP_pressure;BME280_temperature;BME280_humidity;BME280_pressure;Samples;Min_cycle;Max_cycle;Signal;HPM_P1;HPM_P2
2023/03/03 00:02:02;;;;;;;39.93;20.47;;;;;;;;;;5117517;28;20923;-76
2023/03/03 00:04:28;;;;;;;37.40;19.27;;;;;;;;;;5119570;27;20425;-76
2023/03/03 00:06:54;;;;;;;40.28;20.85;;;;;;;;;;5118246;28;20487;-76
2023/03/03 00:09:19;;;;;;;42.83;22.35;;;;;;;;;;5118321;28;20188;-76
2023/03/03 00:11:47;;;;;;;40.00;22.73;;;;;;;;;;5118965;28;20175;-75
2023/03/03 00:14:25;;;;;;;38.08;20.83;;;;;;;;;;5117497;28;20868;-75
2023/03/03 00:16:51;;;;;;;40.10;22.70;;;;;;;;;;5118584;28;20308;-76
2023/03/03 00:19:18;;;;;;;39.25;21.15;;;;;;;;;;5118733;28;20697;-76
2023/03/03 00:21:48;;;;;;;41.80;24.02;;;;;;;;;;5118339;28;20179;-75
2023/03/03 00:24:14;;;;;;;41.47;24.13;;;;;;;;;;5117470;28;20159;-76
2023/03/03 00:26:41;;;;;;;41.90;23.50;;;;;;;;;;5117329;28;20175;-76
2023/03/03 00:29:22;;;;;;;41.28;22.45;;;;;;;;;;5099256;28;20506;-76
2023/03/03 00:31:48;;;;;;;39.88;22.52;;;;;;;;;;5117671;28;20171;-76
2023/03/03 00:34:18;;;;;;;38.20;23.10;;;;;;;;;;5117720;28;20182;-76
2023/03/03 00:36:45;;;;;;;44.35;23.92;;;;;;;;;;5100334;28;20904;-76
2023/03/03 00:39:11;;;;;;;45.22;23.10;;;;;;;;;;5117855;28;20217;-76
2023/03/03 00:41:38;;;;;;;45.42;23.85;;;;;;;;;;5117448;28;20175;-76
2023/03/03 00:44:25;;;;;;;39.88;23.27;;;;;;;;;;5117635;28;20163;-76
2023/03/03 00:46:53;;;;;;;40.67;23.73;;;;;;;;;;5117535;28;20179;-76
2023/03/03 00:49:23;;;;;;;44.78;22.80;;;;;;;;;;5118023;28;20170;-76
2023/03/03 00:51:49;;;;;;;38.70;22.67;;;;;;;;;;5117717;28;20203;-76
2023/03/03 00:54:15;;;;;;;43.15;23.73;;;;;;;;;;5117371;28;20177;-76
2023/03/03 00:56:41;;;;;;;45.20;23.20;;;;;;;;;;5117819;28;20167;-76
2023/03/03 00:59:07;;;;;;;38.13;21.83;;;;;;;;;;5117256;28;20630;-76
2023/03/03 01:01:33;;;;;;;40.33;23.53;;;;;;;;;;5117340;28;20407;-77
2023/03/03 01:03:59;;;;;;;47.93;23.90;;;;;;;;;;5117584;28;20408;-76
2023/03/03 01:06:25;;;;;;;45.95;26.52;;;;;;;;;;5117064;28;20457;-76
2023/03/03 01:08:51;;;;;;;46.80;26.48;;;;;;;;;;5117807;28;20322;-76
2023/03/03 01:11:22;;;;;;;45.80;24.90;;;;;;;;;;5098658;28;20178;-76
2023/03/03 01:13:50;;;;;;;47.30;23.83;;;;;;;;;;5117437;28;20172;-76
2023/03/03 01:16:16;;;;;;;43.58;24.80;;;;;;;;;;5117155;28;20258;-77
2023/03/03 01:18:42;;;;;;;46.78;25.70;;;;;;;;;;5117472;28;20199;-76
2023/03/03 01:21:09;;;;;;;49.20;23.70;;;;;;;;;;5100634;28;20187;-76
2023/03/03 01:23:35;;;;;;;42.25;24.15;;;;;;;;;;5097012;28;20203;-77
2023/03/03 01:26:01;;;;;;;45.33;24.30;;;;;;;;;;5097574;28;20333;-77
2023/03/03 01:28:27;;;;;;;48.72;26.38;;;;;;;;;;5094987;28;20213;-78
2023/03/03 01:30:53;;;;;;;39.50;23.27;;;;;;;;;;5107662;28;20547;-77
2023/03/03 01:33:20;;;;;;;58.85;28.50;;;;;;;;;;5117389;28;20579;-76
2023/03/03 01:35:46;;;;;;;51.85;26.35;;;;;;;;;;5115542;28;20195;-76
2023/03/03 01:38:13;;;;;;;56.92;27.63;;;;;;;;;;5117098;28;20195;-76
2023/03/03 01:40:39;;;;;;;58.33;29.83;;;;;;;;;;5120370;28;20179;-76
2023/03/03 01:43:05;;;;;;;65.75;30.30;;;;;;;;;;5119077;28;20838;-76
2023/03/03 01:45:52;;;;;;;58.78;31.23;;;;;;;;;;5121223;28;20541;-77
2023/03/03 01:48:24;;;;;;;58.50;28.65;;;;;;;;;;5102312;28;20207;-76
2023/03/03 01:50:55;;;;;;;59.45;29.63;;;;;;;;;;5119962;28;20172;-77
2023/03/03 01:53:34;;;;;;;57.38;32.33;;;;;;;;;;5101907;28;20234;-76
2023/03/03 01:56:01;;;;;;;65.20;31.33;;;;;;;;;;5120410;28;20167;-77
2023/03/03 01:58:29;;;;;;;71.60;33.08;;;;;;;;;;5101087;28;20241;-76
2023/03/03 02:00:58;;;;;;;68.28;31.58;;;;;;;;;;5120288;28;20175;-76
2023/03/03 02:03:24;;;;;;;78.88;37.13;;;;;;;;;;5120623;28;20178;-76
2023/03/03 02:05:53;;;;;;;68.40;35.05;;;;;;;;;;5101559;28;20254;-76
2023/03/03 02:08:21;;;;;;;67.20;32.92;;;;;;;;;;5101355;28;20194;-77
2023/03/03 02:10:47;;;;;;;80.78;37.70;;;;;;;;;;5120164;28;20180;-76
2023/03/03 02:13:14;;;;;;;96.95;37.75;;;;;;;;;;5119730;28;20168;-76
2023/03/03 02:15:40;;;;;;;73.75;36.95;;;;;;;;;;5120040;28;20255;-76
2023/03/03 02:18:12;;;;;;;79.10;36.97;;;;;;;;;;5119817;28;20203;-76
2023/03/03 02:20:44;;;;;;;83.80;38.47;;;;;;;;;;5119617;28;20172;-76
2023/03/03 02:23:10;;;;;;;86.35;38.92;;;;;;;;;;5120403;28;20172;-77
2023/03/03 02:25:43;;;;;;;112.45;43.83;;;;;;;;;;5101785;28;20187;-76
2023/03/03 02:28:09;;;;;;;90.93;39.63;;;;;;;;;;5118950;28;20651;-76
2023/03/03 02:30:39;;;;;;;92.95;41.10;;;;;;;;;;5113187;28;20254;-76
2023/03/03 02:33:05;;;;;;;84.55;37.08;;;;;;;;;;5101510;28;20195;-76
2023/03/03 02:35:33;;;;;;;95.53;42.28;;;;;;;;;;5080800;28;20184;-76
2023/03/03 02:38:02;;;;;;;84.88;39.35;;;;;;;;;;5099457;28;20211;-81
2023/03/03 02:40:30;;;;;;;84.97;40.47;;;;;;;;;;5099148;28;20221;-76
2023/03/03 02:42:57;;;;;;;100.50;42.30;;;;;;;;;;5098805;28;20182;-76
2023/03/03 02:45:23;;;;;;;96.85;41.25;;;;;;;;;;5098936;28;20203;-75
2023/03/03 02:47:50;;;;;;;97.73;42.90;;;;;;;;;;5082293;28;20184;-76
2023/03/03 02:50:16;;;;;;;95.88;40.42;;;;;;;;;;5099017;28;20407;-76
2023/03/03 02:52:42;;;;;;;98.53;40.17;;;;;;;;;;5099795;28;20191;-76
2023/03/03 02:55:08;;;;;;;94.97;40.27;;;;;;;;;;5099270;28;20216;-75
2023/03/03 02:57:34;;;;;;;87.30;41.35;;;;;;;;;;5099601;28;20466;-76
2023/03/03 03:00:00;;;;;;;98.30;41.23;;;;;;;;;;5099416;28;20181;-83
2023/03/03 03:02:26;;;;;;;98.55;39.53;;;;;;;;;;5099518;28;20406;-76
2023/03/03 03:04:52;;;;;;;84.18;37.95;;;;;;;;;;5080317;28;20233;-76
2023/03/03 03:07:18;;;;;;;100.97;38.97;;;;;;;;;;5099360;28;20180;-76
2023/03/03 03:09:44;;;;;;;87.40;38.53;;;;;;;;;;5081859;28;20176;-75
2023/03/03 03:12:11;;;;;;;78.55;37.40;;;;;;;;;;5099819;28;20561;-76
2023/03/03 03:14:37;;;;;;;95.72;38.05;;;;;;;;;;5081721;28;20176;-76
2023/03/03 03:17:03;;;;;;;86.95;37.40;;;;;;;;;;5099489;28;20174;-76
2023/03/03 03:19:29;;;;;;;104.90;40.17;;;;;;;;;;5099112;28;20198;-76
2023/03/03 03:21:55;;;;;;;98.53;38.83;;;;;;;;;;5098558;28;20522;-75
2023/03/03 03:24:21;;;;;;;77.35;35.75;;;;;;;;;;5098932;28;20182;-75
2023/03/03 03:26:47;;;;;;;92.30;36.40;;;;;;;;;;5099547;28;20174;-76
2023/03/03 03:29:13;;;;;;;84.80;39.80;;;;;;;;;;5080853;28;20396;-76
2023/03/03 03:31:39;;;;;;;97.33;38.60;;;;;;;;;;5098633;28;20493;-76
2023/03/03 03:34:05;;;;;;;92.25;38.15;;;;;;;;;;5097983;28;20414;-76
2023/03/03 03:36:31;;;;;;;89.97;37.17;;;;;;;;;;5098785;28;20536;-76
2023/03/03 03:38:57;;;;;;;87.37;36.30;;;;;;;;;;5098693;28;20469;-76
2023/03/03 03:41:23;;;;;;;80.95;35.58;;;;;;;;;;5098667;28;20404;-76
2023/03/03 03:43:49;;;;;;;85.80;36.90;;;;;;;;;;5098599;28;20214;-76
2023/03/03 03:46:15;;;;;;;84.32;34.63;;;;;;;;;;5080500;28;20417;-76
2023/03/03 03:48:41;;;;;;;87.13;36.00;;;;;;;;;;5098654;28;20187;-76
2023/03/03 03:51:07;;;;;;;85.63;37.00;;;;;;;;;;5098905;28;20175;-76
2023/03/03 03:53:33;;;;;;;82.37;35.47;;;;;;;;;;5098469;28;20825;-76
2023/03/03 03:55:59;;;;;;;83.05;35.40;;;;;;;;;;5099082;28;20408;-75
2023/03/03 03:58:25;;;;;;;81.70;34.20;;;;;;;;;;5098586;28;20199;-76
2023/03/03 04:00:51;;;;;;;77.32;35.30;;;;;;;;;;5097320;28;20414;-76
2023/03/03 04:03:17;;;;;;;77.03;34.42;;;;;;;;;;5098250;28;20175;-76
2023/03/03 04:05:43;;;;;;;79.35;34.67;;;;;;;;;;5098317;28;20233;-76
2023/03/03 04:08:09;;;;;;;86.22;34.80;;;;;;;;;;5098570;28;20183;-76
2023/03/03 04:10:35;;;;;;;87.32;35.47;;;;;;;;;;5098728;28;20581;-76
2023/03/03 04:13:01;;;;;;;88.45;33.97;;;;;;;;;;5098536;28;20198;-76
2023/03/03 04:15:27;;;;;;;76.75;33.08;;;;;;;;;;5097563;28;20228;-76
2023/03/03 04:17:53;;;;;;;81.55;35.83;;;;;;;;;;5097762;28;20211;-76
2023/03/03 04:20:19;;;;;;;83.17;35.17;;;;;;;;;;5097590;28;20184;-76
2023/03/03 04:22:45;;;;;;;78.85;35.58;;;;;;;;;;5080215;28;20469;-76
2023/03/03 04:25:16;;;;;;;83.60;34.63;;;;;;;;;;5097155;28;20278;-76
2023/03/03 04:27:42;;;;;;;82.22;34.40;;;;;;;;;;5098085;28;20587;-76
2023/03/03 04:30:09;;;;;;;79.38;33.75;;;;;;;;;;5062927;28;20186;-76
2023/03/03 04:32:35;;;;;;;78.40;32.58;;;;;;;;;;5098295;28;20184;-76
2023/03/03 04:35:01;;;;;;;80.70;34.55;;;;;;;;;;5097817;28;20191;-76
2023/03/03 04:37:27;;;;;;;82.82;35.42;;;;;;;;;;5097493;28;20224;-76
2023/03/03 04:39:53;;;;;;;76.65;30.80;;;;;;;;;;5097847;28;20171;-75
2023/03/03 04:42:19;;;;;;;75.40;32.50;;;;;;;;;;5097094;28;20186;-76
2023/03/03 04:44:45;;;;;;;86.60;35.10;;;;;;;;;;5096713;28;20446;-76
2023/03/03 04:47:11;;;;;;;79.27;33.03;;;;;;;;;;5096745;28;20190;-76
2023/03/03 04:49:37;;;;;;;81.70;35.20;;;;;;;;;;5097707;28;20824;-76
2023/03/03 04:52:03;;;;;;;86.40;37.95;;;;;;;;;;5098126;28;20433;-76
2023/03/03 04:54:30;;;;;;;79.72;33.63;;;;;;;;;;5097816;28;20182;-76
2023/03/03 04:56:57;;;;;;;85.28;35.85;;;;;;;;;;5079563;28;20183;-76
2023/03/03 04:59:23;;;;;;;83.82;34.30;;;;;;;;;;5079073;28;20207;-78
2023/03/03 05:01:49;;;;;;;87.88;36.80;;;;;;;;;;5097503;28;20175;-75
2023/03/03 05:04:15;;;;;;;83.25;32.85;;;;;;;;;;5097287;28;20591;-75
2023/03/03 05:06:42;;;;;;;88.97;36.85;;;;;;;;;;5097595;28;20554;-76
2023/03/03 05:09:08;;;;;;;92.50;36.80;;;;;;;;;;5097907;28;20225;-83
2023/03/03 05:11:34;;;;;;;84.82;33.08;;;;;;;;;;5097639;28;20206;-76
2023/03/03 05:14:01;;;;;;;89.55;34.70;;;;;;;;;;5100912;28;20172;-76
2023/03/03 05:16:27;;;;;;;77.78;33.40;;;;;;;;;;5083270;28;20262;-76
2023/03/03 05:18:54;;;;;;;83.88;36.30;;;;;;;;;;5101184;28;20208;-76
2023/03/03 05:21:20;;;;;;;90.07;36.58;;;;;;;;;;5101445;28;20626;-76
2023/03/03 05:23:46;;;;;;;84.73;35.20;;;;;;;;;;5101269;28;20187;-76
2023/03/03 05:26:12;;;;;;;83.95;33.40;;;;;;;;;;5101181;28;20896;-76
2023/03/03 05:28:38;;;;;;;84.05;35.00;;;;;;;;;;5101048;28;20270;-76
2023/03/03 05:31:04;;;;;;;86.10;36.10;;;;;;;;;;5101421;28;20182;-76
2023/03/03 05:33:30;;;;;;;90.13;33.90;;;;;;;;;;5082706;28;20409;-76
2023/03/03 05:35:56;;;;;;;88.57;37.67;;;;;;;;;;5101966;28;20179;-76
2023/03/03 05:38:23;;;;;;;86.68;38.08;;;;;;;;;;5100596;28;20298;-76
2023/03/03 05:40:49;;;;;;;90.40;34.65;;;;;;;;;;5100845;28;20221;-75
2023/03/03 05:43:15;;;;;;;81.93;35.10;;;;;;;;;;5100566;28;20168;-76
2023/03/03 05:45:41;;;;;;;83.82;35.78;;;;;;;;;;5100962;28;20434;-76
2023/03/03 05:48:09;;;;;;;77.95;35.22;;;;;;;;;;5100302;28;20520;-76
2023/03/03 05:50:35;;;;;;;89.45;36.85;;;;;;;;;;5100887;28;20183;-76
2023/03/03 05:53:01;;;;;;;90.50;35.80;;;;;;;;;;5100449;28;20190;-75
2023/03/03 05:55:27;;;;;;;81.63;36.45;;;;;;;;;;5100290;28;20682;-76
2023/03/03 05:57:53;;;;;;;82.00;33.03;;;;;;;;;;5100491;28;20212;-76
2023/03/03 06:00:19;;;;;;;82.73;34.27;;;;;;;;;;5100185;28;20180;-76
2023/03/03 06:02:45;;;;;;;69.90;32.60;;;;;;;;;;5100141;28;20410;-76
2023/03/03 06:05:12;;;;;;;85.72;35.40;;;;;;;;;;5099751;28;20705;-78
2023/03/03 06:07:38;;;;;;;88.57;37.45;;;;;;;;;;5100193;28;20167;-75
2023/03/03 06:10:04;;;;;;;81.70;33.85;;;;;;;;;;5100286;28;20183;-75
2023/03/03 06:12:30;;;;;;;72.88;34.67;;;;;;;;;;5100644;28;20176;-76
2023/03/03 06:14:56;;;;;;;78.25;34.25;;;;;;;;;;5100214;28;20313;-76
2023/03/03 06:17:22;;;;;;;76.33;34.17;;;;;;;;;;5100142;28;20592;-76
2023/03/03 06:19:48;;;;;;;72.78;34.15;;;;;;;;;;5082095;28;20399;-76
2023/03/03 06:22:14;;;;;;;80.13;34.30;;;;;;;;;;5100115;28;20175;-76
2023/03/03 06:24:40;;;;;;;71.00;31.52;;;;;;;;;;5099126;28;20237;-76
2023/03/03 06:27:06;;;;;;;64.50;30.90;;;;;;;;;;5099290;28;20168;-76
2023/03/03 06:29:32;;;;;;;71.85;31.05;;;;;;;;;;5099792;28;20542;-76
2023/03/03 06:31:58;;;;;;;80.00;33.47;;;;;;;;;;5081792;28;20285;-75
2023/03/03 06:34:24;;;;;;;75.00;33.15;;;;;;;;;;5099165;28;20184;-76
2023/03/03 06:36:51;;;;;;;71.35;30.90;;;;;;;;;;5099707;28;20270;-76
2023/03/03 06:39:17;;;;;;;75.05;33.63;;;;;;;;;;5081065;28;20308;-76
2023/03/03 06:41:43;;;;;;;74.23;31.30;;;;;;;;;;5099561;28;20647;-76
2023/03/03 06:44:10;;;;;;;74.10;35.03;;;;;;;;;;5099755;28;20409;-75
2023/03/03 06:46:36;;;;;;;74.35;33.78;;;;;;;;;;5099451;28;20762;-76
2023/03/03 06:49:02;;;;;;;75.55;33.13;;;;;;;;;;5081751;28;20331;-75
2023/03/03 06:51:33;;;;;;;74.68;34.05;;;;;;;;;;5099576;28;20215;-76
2023/03/03 06:54:01;;;;;;;74.22;31.33;;;;;;;;;;5099757;28;20223;-76
2023/03/03 06:56:28;;;;;;;80.47;35.05;;;;;;;;;;5098983;28;20517;-76
2023/03/03 06:58:56;;;;;;;75.25;32.72;;;;;;;;;;5099617;28;20217;-76
2023/03/03 07:01:22;;;;;;;69.50;31.50;;;;;;;;;;5099171;28;20179;-76
2023/03/03 07:03:48;;;;;;;67.60;29.97;;;;;;;;;;5099554;28;20179;-75
2023/03/03 07:06:22;;;;;;;71.90;31.67;;;;;;;;;;5099111;28;20472;-75
2023/03/03 07:08:48;;;;;;;79.45;33.20;;;;;;;;;;5099115;28;20401;-76
2023/03/03 07:11:17;;;;;;;70.80;30.02;;;;;;;;;;5099720;28;20293;-75
2023/03/03 07:13:50;;;;;;;72.72;32.45;;;;;;;;;;5099630;28;20179;-76
2023/03/03 07:16:17;;;;;;;68.82;30.25;;;;;;;;;;5098978;28;20180;-84
2023/03/03 07:18:44;;;;;;;70.05;30.40;;;;;;;;;;5099161;28;20297;-76
2023/03/03 07:21:18;;;;;;;78.55;33.90;;;;;;;;;;5099216;28;20165;-76
2023/03/03 07:23:45;;;;;;;65.88;31.42;;;;;;;;;;5099434;28;20255;-76
2023/03/03 07:26:12;;;;;;;74.82;30.75;;;;;;;;;;5099072;28;20224;-76
2023/03/03 07:28:40;;;;;;;69.43;30.42;;;;;;;;;;5098972;28;20189;-76
2023/03/03 07:31:16;;;;;;;71.40;29.15;;;;;;;;;;5099228;28;20179;-76
2023/03/03 07:33:46;;;;;;;70.78;31.23;;;;;;;;;;5099599;28;20163;-76
2023/03/03 07:36:27;;;;;;;69.88;30.02;;;;;;;;;;5098717;28;20187;-76
2023/03/03 07:38:54;;;;;;;66.22;30.30;;;;;;;;;;5098691;28;20230;-75
2023/03/03 07:41:22;;;;;;;67.60;30.90;;;;;;;;;;5098340;28;20646;-76
2023/03/03 07:43:55;;;;;;;72.35;29.40;;;;;;;;;;5081109;28;20278;-76
2023/03/03 07:46:26;;;;;;;66.82;30.27;;;;;;;;;;5098751;28;20184;-76
2023/03/03 07:48:53;;;;;;;73.50;29.08;;;;;;;;;;5098416;28;20211;-76
2023/03/03 07:51:21;;;;;;;74.68;31.10;;;;;;;;;;5098428;28;20184;-76
2023/03/03 07:53:47;;;;;;;65.40;31.92;;;;;;;;;;5098391;28;20172;-76
2023/03/03 07:56:22;;;;;;;86.72;33.58;;;;;;;;;;5079813;28;20190;-76
2023/03/03 07:58:48;;;;;;;74.05;30.02;;;;;;;;;;5098388;28;20202;-76
2023/03/03 08:01:23;;;;;;;76.97;32.85;;;;;;;;;;5097992;28;20651;-76
2023/03/03 08:03:50;;;;;;;74.03;31.77;;;;;;;;;;5098086;28;20171;-76
2023/03/03 08:06:51;;;;;;;79.78;33.80;;;;;;;;;;5097438;28;20242;-76
2023/03/03 08:09:17;;;;;;;75.97;31.55;;;;;;;;;;4996233;28;20674;-75
2023/03/03 08:11:51;;;;;;;77.23;35.37;;;;;;;;;;5078109;28;20229;-76
2023/03/03 08:14:22;;;;;;;93.85;36.05;;;;;;;;;;5098162;28;20406;-76
2023/03/03 08:16:48;;;;;;;79.00;34.53;;;;;;;;;;5098154;28;20171;-76
2023/03/03 08:19:17;;;;;;;80.87;31.90;;;;;;;;;;5079544;28;20214;-76
2023/03/03 08:21:43;;;;;;;82.13;33.47;;;;;;;;;;5097786;28;20424;-76
2023/03/03 08:24:09;;;;;;;77.60;33.03;;;;;;;;;;5098080;28;20183;-75
2023/03/03 08:26:36;;;;;;;84.80;35.37;;;;;;;;;;5097453;28;20525;-76
2023/03/03 08:29:02;;;;;;;72.07;34.58;;;;;;;;;;5098277;28;20409;-75
2023/03/03 08:31:28;;;;;;;75.78;35.10;;;;;;;;;;5097492;28;20573;-76
2023/03/03 08:33:54;;;;;;;83.50;34.92;;;;;;;;;;5098031;28;20175;-76
2023/03/03 08:36:20;;;;;;;90.72;34.00;;;;;;;;;;5100335;28;20194;-81
2023/03/03 08:38:46;;;;;;;85.38;34.40;;;;;;;;;;5099694;28;20214;-77
2023/03/03 08:41:13;;;;;;;74.55;31.50;;;;;;;;;;5096215;28;20530;-77
2023/03/03 08:43:39;;;;;;;81.40;34.85;;;;;;;;;;5077675;28;20198;-75
2023/03/03 08:46:08;;;;;;;84.68;33.38;;;;;;;;;;5097137;28;20176;-75
2023/03/03 08:48:34;;;;;;;76.78;32.75;;;;;;;;;;5100357;28;20199;-76
2023/03/03 08:51:01;;;;;;;74.80;30.90;;;;;;;;;;5100196;28;20256;-76
2023/03/03 08:53:27;;;;;;;75.25;31.60;;;;;;;;;;5101615;28;20175;-75
2023/03/03 08:55:53;;;;;;;80.70;30.45;;;;;;;;;;5112479;28;20182;-75
2023/03/03 08:58:20;;;;;;;74.95;31.10;;;;;;;;;;5094320;28;20199;-76
2023/03/03 09:00:46;;;;;;;70.25;27.67;;;;;;;;;;5121505;28;20178;-75
2023/03/03 09:03:12;;;;;;;78.10;31.90;;;;;;;;;;5121028;28;20254;-75
2023/03/03 09:05:38;;;;;;;66.60;29.23;;;;;;;;;;5119602;28;20318;-76
2023/03/03 09:08:05;;;;;;;60.95;29.80;;;;;;;;;;5121878;28;20400;-75
2023/03/03 09:10:31;;;;;;;64.85;29.10;;;;;;;;;;5122196;28;20168;-76
2023/03/03 09:12:58;;;;;;;57.25;28.50;;;;;;;;;;5121385;28;20195;-76
2023/03/03 09:15:29;;;;;;;61.25;28.38;;;;;;;;;;5122466;28;20167;-76
2023/03/03 09:18:15;;;;;;;59.63;27.90;;;;;;;;;;5121633;28;20195;-75
2023/03/03 09:20:51;;;;;;;64.55;29.70;;;;;;;;;;5120869;28;20265;-75
2023/03/03 09:23:35;;;;;;;61.78;29.20;;;;;;;;;;5121806;28;20182;-75
2023/03/03 09:26:20;;;;;;;61.13;27.58;;;;;;;;;;5121353;28;20175;-75
2023/03/03 09:28:46;;;;;;;65.45;27.63;;;;;;;;;;5121371;28;20528;-75
2023/03/03 09:31:26;;;;;;;61.70;28.23;;;;;;;;;;5121798;28;20186;-75
2023/03/03 09:33:56;;;;;;;66.00;29.73;;;;;;;;;;5120394;28;20409;-75
2023/03/03 09:36:30;;;;;;;67.63;28.65;;;;;;;;;;5117679;28;20206;-77
2023/03/03 09:38:56;;;;;;;67.60;29.55;;;;;;;;;;5104769;28;20208;-75
2023/03/03 09:41:41;;;;;;;65.38;28.80;;;;;;;;;;5100634;28;20617;-76
2023/03/03 09:44:16;;;;;;;67.43;30.02;;;;;;;;;;5101149;28;20168;-75
2023/03/03 09:47:00;;;;;;;64.90;29.30;;;;;;;;;;5100366;28;20175;-75
2023/03/03 09:49:34;;;;;;;66.78;29.23;;;;;;;;;;5100208;28;20176;-75
2023/03/03 09:52:20;;;;;;;61.70;27.77;;;;;;;;;;5101108;28;20239;-76
2023/03/03 09:54:46;;;;;;;62.50;29.30;;;;;;;;;;5082498;28;20175;-75
2023/03/03 09:57:21;;;;;;;62.55;26.30;;;;;;;;;;5100025;28;20173;-75
2023/03/03 10:00:06;;;;;;;70.80;27.77;;;;;;;;;;5099710;28;20576;-77
2023/03/03 10:02:32;;;;;;;69.35;28.90;;;;;;;;;;5081558;28;20202;-75
2023/03/03 10:05:14;;;;;;;71.05;32.53;;;;;;;;;;5099618;28;20263;-75
2023/03/03 10:07:44;;;;;;;61.97;28.75;;;;;;;;;;5100783;28;20192;-75
2023/03/03 10:10:16;;;;;;;63.17;30.00;;;;;;;;;;5099440;28;20611;-75
2023/03/03 10:12:48;;;;;;;69.20;27.17;;;;;;;;;;5099134;28;20251;-75
2023/03/03 10:15:43;;;;;;;75.97;29.80;;;;;;;;;;5100943;28;20168;-75
2023/03/03 10:18:23;;;;;;;64.50;27.50;;;;;;;;;;5009899;28;20215;-74
2023/03/03 10:21:08;;;;;;;68.20;28.75;;;;;;;;;;5100115;28;20172;-75
2023/03/03 10:23:44;;;;;;;62.95;26.80;;;;;;;;;;5099718;28;20178;-75
2023/03/03 10:26:16;;;;;;;60.45;26.75;;;;;;;;;;5099473;28;20236;-76
2023/03/03 10:28:48;;;;;;;63.15;26.30;;;;;;;;;;5099362;28;20236;-76
2023/03/03 10:31:33;;;;;;;56.88;27.20;;;;;;;;;;5082237;28;20180;-75
2023/03/03 10:34:15;;;;;;;51.38;25.02;;;;;;;;;;5098661;28;20183;-75
2023/03/03 10:37:00;;;;;;;64.20;24.60;;;;;;;;;;5098801;28;20195;-75
2023/03/03 10:39:26;;;;;;;51.75;26.45;;;;;;;;;;5106685;28;20219;-80
2023/03/03 10:41:52;;;;;;;57.97;26.83;;;;;;;;;;5099024;28;20195;-75
2023/03/03 10:44:18;;;;;;;56.75;24.55;;;;;;;;;;5081677;28;20421;-75
2023/03/03 10:46:50;;;;;;;56.90;24.97;;;;;;;;;;5099805;28;20184;-75
2023/03/03 10:49:46;;;;;;;51.92;23.85;;;;;;;;;;5099211;28;20756;-75
2023/03/03 10:52:24;;;;;;;52.45;22.52;;;;;;;;;;5010187;28;20191;-75
2023/03/03 10:55:09;;;;;;;56.38;22.60;;;;;;;;;;5098446;28;20172;-74
2023/03/03 10:57:41;;;;;;;52.33;26.75;;;;;;;;;;5098652;28;20175;-75
2023/03/03 11:00:07;;;;;;;51.03;24.40;;;;;;;;;;5098491;28;20179;-75
2023/03/03 11:02:42;;;;;;;49.03;25.98;;;;;;;;;;5098278;28;20173;-75
2023/03/03 11:05:21;;;;;;;54.55;26.02;;;;;;;;;;5098899;28;20575;-75
2023/03/03 11:07:55;;;;;;;51.90;24.73;;;;;;;;;;5098158;28;20175;-75
2023/03/03 11:10:29;;;;;;;52.03;25.52;;;;;;;;;;5097837;28;20167;-75
2023/03/03 11:13:02;;;;;;;54.45;25.63;;;;;;;;;;5099293;28;20179;-75
2023/03/03 11:15:37;;;;;;;54.47;26.60;;;;;;;;;;5098229;28;20237;-74
2023/03/03 11:18:15;;;;;;;50.65;24.50;;;;;;;;;;5098188;28;20203;-74
2023/03/03 11:20:59;;;;;;;49.95;23.98;;;;;;;;;;5098012;28;20681;-75
2023/03/03 11:23:31;;;;;;;51.30;25.65;;;;;;;;;;5098023;28;20222;-74
2023/03/03 11:25:57;;;;;;;52.42;24.05;;;;;;;;;;5098009;28;20176;-74
2023/03/03 11:28:30;;;;;;;55.10;24.90;;;;;;;;;;5098926;28;20180;-74
2023/03/03 11:30:56;;;;;;;49.80;23.60;;;;;;;;;;5098314;28;20415;-74
2023/03/03 11:33:22;;;;;;;57.40;24.58;;;;;;;;;;5097298;28;20540;-75
2023/03/03 11:35:55;;;;;;;50.88;25.80;;;;;;;;;;5097492;28;20180;-74
2023/03/03 11:38:27;;;;;;;49.33;23.67;;;;;;;;;;5098234;28;20204;-75
2023/03/03 11:40:58;;;;;;;54.10;24.48;;;;;;;;;;5109339;28;20189;-74
2023/03/03 11:43:43;;;;;;;54.75;25.92;;;;;;;;;;5118924;28;20254;-74
2023/03/03 11:46:18;;;;;;;48.45;25.27;;;;;;;;;;5118894;28;20168;-74
2023/03/03 11:49:02;;;;;;;51.45;25.63;;;;;;;;;;5118162;28;20172;-76
2023/03/03 11:51:28;;;;;;;56.67;26.25;;;;;;;;;;5118779;28;20635;-75
2023/03/03 11:54:09;;;;;;;50.60;25.92;;;;;;;;;;5118398;28;20178;-76
2023/03/03 11:56:39;;;;;;;55.78;25.35;;;;;;;;;;5117857;28;20175;-75
2023/03/03 11:59:20;;;;;;;59.50;28.35;;;;;;;;;;5118791;28;20239;-75
2023/03/03 12:01:54;;;;;;;60.88;25.15;;;;;;;;;;5117210;28;20230;-75
2023/03/03 12:04:21;;;;;;;59.78;26.88;;;;;;;;;;5118218;28;20175;-76
2023/03/03 12:07:06;;;;;;;58.90;26.67;;;;;;;;;;5117387;28;20201;-75
2023/03/03 12:09:45;;;;;;;53.47;26.65;;;;;;;;;;5116192;28;20182;-77
2023/03/03 12:12:11;;;;;;;56.35;26.58;;;;;;;;;;5117517;28;20171;-76
2023/03/03 12:14:57;;;;;;;55.08;25.98;;;;;;;;;;5117737;28;20510;-76
2023/03/03 12:17:23;;;;;;;54.45;26.55;;;;;;;;;;5117156;28;20204;-75
2023/03/03 12:20:07;;;;;;;50.87;26.00;;;;;;;;;;5118039;28;20674;-75
2023/03/03 12:22:35;;;;;;;54.72;25.45;;;;;;;;;;5116893;28;20392;-76
2023/03/03 12:25:01;;;;;;;50.03;23.63;;;;;;;;;;5117080;28;20175;-76
2023/03/03 12:27:46;;;;;;;48.78;25.60;;;;;;;;;;5117118;28;20176;-77
2023/03/03 12:30:31;;;;;;;49.88;24.70;;;;;;;;;;5117695;28;20215;-78
2023/03/03 12:33:11;;;;;;;52.85;27.20;;;;;;;;;;5117523;28;20175;-76
2023/03/03 12:35:52;;;;;;;53.72;26.05;;;;;;;;;;5117852;28;20176;-76
2023/03/03 12:38:37;;;;;;;49.83;24.15;;;;;;;;;;5098753;28;20674;-76
2023/03/03 12:41:03;;;;;;;55.55;27.13;;;;;;;;;;5107830;28;20190;-76
2023/03/03 12:43:29;;;;;;;62.45;33.92;;;;;;;;;;5117251;28;20180;-75
2023/03/03 12:45:59;;;;;;;76.03;35.50;;;;;;;;;;5114090;28;20172;-78
2023/03/03 12:48:37;;;;;;;71.47;32.53;;;;;;;;;;5114614;28;20429;-80
2023/03/03 12:51:05;;;;;;;75.28;35.05;;;;;;;;;;5118001;28;20169;-75
2023/03/03 12:53:50;;;;;;;66.78;31.45;;;;;;;;;;5117868;28;20627;-76
2023/03/03 12:56:20;;;;;;;63.38;30.50;;;;;;;;;;5116803;28;20172;-76
2023/03/03 12:58:46;;;;;;;59.33;30.35;;;;;;;;;;5117367;28;20212;-76
2023/03/03 13:01:27;;;;;;;62.63;30.17;;;;;;;;;;5099759;28;20175;-76
2023/03/03 13:04:09;;;;;;;73.13;34.00;;;;;;;;;;5116405;28;20911;-75
2023/03/03 13:06:47;;;;;;;57.10;25.83;;;;;;;;;;5117088;28;20706;-77
2023/03/03 13:09:16;;;;;;;59.40;29.58;;;;;;;;;;5097779;28;20291;-76
2023/03/03 13:12:12;;;;;;;57.35;27.83;;;;;;;;;;5116306;28;20170;-77
2023/03/03 13:14:44;;;;;;;56.83;25.70;;;;;;;;;;5027310;28;20675;-77
2023/03/03 13:17:27;;;;;;;58.72;27.38;;;;;;;;;;5098739;28;20178;-77
2023/03/03 13:19:53;;;;;;;60.75;28.92;;;;;;;;;;5116098;28;20654;-76
2023/03/03 13:22:38;;;;;;;70.63;31.37;;;;;;;;;;5118326;28;20221;-75
2023/03/03 13:25:23;;;;;;;76.40;31.60;;;;;;;;;;5117156;28;20777;-76
2023/03/03 13:27:50;;;;;;;72.60;30.73;;;;;;;;;;5117134;28;20201;-76
2023/03/03 13:30:21;;;;;;;76.90;34.83;;;;;;;;;;5117651;28;20176;-76
2023/03/03 13:33:00;;;;;;;75.28;32.33;;;;;;;;;;5117436;28;20163;-78
2023/03/03 13:35:33;;;;;;;64.25;30.33;;;;;;;;;;5121232;28;20184;-76
2023/03/03 13:38:00;;;;;;;62.00;29.17;;;;;;;;;;5120584;28;20588;-76
2023/03/03 13:40:28;;;;;;;72.20;30.42;;;;;;;;;;5117329;28;20182;-76
2023/03/03 13:43:03;;;;;;;72.70;31.30;;;;;;;;;;5095739;28;20183;-75
2023/03/03 13:45:43;;;;;;;62.70;30.52;;;;;;;;;;5120910;28;20179;-76
2023/03/03 13:48:09;;;;;;;61.03;28.13;;;;;;;;;;5120468;28;20183;-75
2023/03/03 13:50:43;;;;;;;60.43;29.90;;;;;;;;;;5120383;28;20172;-75
2023/03/03 13:53:24;;;;;;;61.55;29.77;;;;;;;;;;5121235;28;20431;-75
2023/03/03 13:56:05;;;;;;;67.43;31.67;;;;;;;;;;5119539;28;20157;-76
2023/03/03 13:58:34;;;;;;;52.25;26.40;;;;;;;;;;5120616;28;20191;-75
2023/03/03 14:01:03;;;;;;;64.43;29.00;;;;;;;;;;5120729;28;20191;-75
2023/03/03 14:03:48;;;;;;;50.35;25.13;;;;;;;;;;5100954;28;20183;-76
2023/03/03 14:06:19;;;;;;;63.58;27.92;;;;;;;;;;5120035;28;20314;-76
2023/03/03 14:08:45;;;;;;;63.22;27.08;;;;;;;;;;5101571;28;20186;-75
2023/03/03 14:11:15;;;;;;;56.17;27.73;;;;;;;;;;5101320;28;20270;-76
2023/03/03 14:13:49;;;;;;;54.38;27.33;;;;;;;;;;5101069;28;20198;-75
2023/03/03 14:16:15;;;;;;;53.08;23.65;;;;;;;;;;5102263;28;20170;-75
2023/03/03 14:18:56;;;;;;;59.15;24.38;;;;;;;;;;5119419;28;20218;-75
2023/03/03 14:21:58;;;;;;;45.90;21.98;;;;;;;;;;5102159;28;20179;-75
2023/03/03 14:24:25;;;;;;;52.38;25.83;;;;;;;;;;5017889;28;20178;-75
2023/03/03 14:26:55;;;;;;;48.30;20.98;;;;;;;;;;5082238;28;20183;-75
2023/03/03 14:29:24;;;;;;;46.58;21.23;;;;;;;;;;5101406;28;20211;-74
2023/03/03 14:31:50;;;;;;;50.58;23.45;;;;;;;;;;5101467;28;20175;-74
2023/03/03 14:34:23;;;;;;;46.65;22.77;;;;;;;;;;5100844;28;20175;-74